Time,TemperatureF,DewpointF,PressureIn,WindDirection,WindDirectionDegrees,WindSpeedMPH,WindSpeedGustMPH,Humidity,HourlyPrecipIn,Conditions,Clouds,dailyrainin,SoftwareType,DateUTC
2013-01-26 00:00:00,26.4,15.2,25.60,North,0,0.0,0.0,62,0.00,,---,0.00,VWS V13.01,2013-01-26 07:00:00,
2013-01-26 00:05:00,26.4,14.8,25.60,North,0,0.0,0.0,61,0.00,,---,0.00,VWS V13.01,2013-01-26 07:05:00,
2013-01-26 00:10:00,25.9,14.3,25.60,North,0,0.0,0.0,61,0.00,,---,0.00,VWS V13.01,2013-01-26 07:10:00,
2013-01-26 00:15:00,25.3,13.8,25.60,North,0,0.0,0.0,61,0.00,,---,0.00,VWS V13.01,2013-01-26 07:15:00,
2013-01-26 00:20:00,25.2,14.4,25.60,North,0,0.0,0.0,63,0.00,,---,0.00,VWS V13.01,2013-01-26 07:20:00,
2013-01-26 00:25:00,25.0,14.5,25.57,North,0,0.0,0.0,64,0.00,,---,0.00,VWS V13.01,2013-01-26 07:25:00,
2013-01-26 00:30:00,25.0,14.9,25.57,North,0,0.0,0.0,65,0.00,,---,0.00,VWS V13.01,2013-01-26 07:30:00,
2013-01-26 00:35:00,25.0,14.9,25.57,North,0,0.0,0.0,65,0.00,,---,0.00,VWS V13.01,2013-01-26 07:35:00,
2013-01-26 00:40:00,25.2,15.1,25.57,North,0,0.0,0.0,65,0.00,,---,0.00,VWS V13.01,2013-01-26 07:40:00,
2013-01-26 00:45:00,25.0,15.2,25.57,North,0,0.0,0.0,66,0.00,,---,0.00,VWS V13.01,2013-01-26 07:45:00,
2013-01-26 00:50:00,25.0,15.2,25.57,North,0,0.0,0.0,66,0.00,,---,0.00,VWS V13.01,2013-01-26 07:50:00,
2013-01-26 00:55:00,25.0,15.6,25.57,North,0,0.0,0.0,67,0.00,,---,0.00,VWS V13.01,2013-01-26 07:55:00,
2013-01-26 01:00:00,25.2,15.8,25.57,North,0,0.0,0.0,67,0.00,,---,0.00,VWS V13.01,2013-01-26 08:00:00,
2013-01-26 01:05:00,25.3,15.6,25.57,North,0,0.0,0.0,66,0.00,,---,0.00,VWS V13.01,2013-01-26 08:05:00,
2013-01-26 01:10:00,25.0,14.9,25.57,North,0,0.0,0.0,65,0.00,,---,0.00,VWS V13.01,2013-01-26 08:10:00,
2013-01-26 01:15:00,25.0,15.2,25.57,North,0,0.0,0.0,66,0.00,,---,0.00,VWS V13.01,2013-01-26 08:15:00,
2013-01-26 01:20:00,24.4,14.7,25.57,North,0,0.0,0.0,66,0.00,,---,0.00,VWS V13.01,2013-01-26 08:20:00,
2013-01-26 01:25:00,24.3,14.6,25.57,North,0,0.0,0.0,66,0.00,,---,0.00,VWS V13.01,2013-01-26 08:25:00,
2013-01-26 01:30:00,24.3,15.6,25.57,North,0,0.0,0.0,69,0.00,,---,0.00,VWS V13.01,2013-01-26 08:30:00,
2013-01-26 01:35:00,24.4,15.7,25.57,North,0,0.0,0.0,69,0.00,,---,0.00,VWS V13.01,2013-01-26 08:35:00,
2013-01-26 01:40:00,24.3,15.9,25.54,North,0,0.0,0.0,70,0.00,,---,0.00,VWS V13.01,2013-01-26 08:40:00,
2013-01-26 01:45:00,24.1,15.7,25.54,North,0,0.0,0.0,70,0.00,,---,0.00,VWS V13.01,2013-01-26 08:45:00,
2013-01-26 01:50:00,24.3,16.2,25.54,North,0,0.0,0.0,71,0.00,,---,0.00,VWS V13.01,2013-01-26 08:50:00,
2013-01-26 01:55:00,24.4,16.7,25.54,North,0,0.0,0.0,72,0.00,,---,0.00,VWS V13.01,2013-01-26 08:55:00,
2013-01-26 02:00:00,24.4,17.0,25.54,North,0,0.0,0.0,73,0.00,,---,0.00,VWS V13.01,2013-01-26 09:00:00,
2013-01-26 02:05:00,24.8,17.4,25.54,North,0,0.0,0.0,73,0.00,,---,0.00,VWS V13.01,2013-01-26 09:05:00,
2013-01-26 02:10:00,25.0,17.6,25.54,North,0,0.0,0.0,73,0.00,,---,0.00,VWS V13.01,2013-01-26 09:10:00,
2013-01-26 02:15:00,25.0,17.2,25.54,North,0,0.0,0.0,72,0.00,,---,0.00,VWS V13.01,2013-01-26 09:15:00,
2013-01-26 02:20:00,24.8,17.4,25.54,North,0,0.0,0.0,73,0.00,,---,0.00,VWS V13.01,2013-01-26 09:20:00,
2013-01-26 02:25:00,24.6,16.9,25.54,North,0,0.0,0.0,72,0.00,,---,0.00,VWS V13.01,2013-01-26 09:25:00,
2013-01-26 02:30:00,24.8,17.4,25.54,North,0,0.0,0.0,73,0.00,,---,0.00,VWS V13.01,2013-01-26 09:30:00,
2013-01-26 02:35:00,24.4,16.7,25.54,North,0,0.0,0.0,72,0.00,,---,0.00,VWS V13.01,2013-01-26 09:35:00,
2013-01-26 02:40:00,24.3,16.5,25.54,North,0,0.0,0.0,72,0.00,,---,0.00,VWS V13.01,2013-01-26 09:40:00,
2013-01-26 02:45:00,23.9,16.2,25.54,North,0,0.0,0.0,72,0.00,,---,0.00,VWS V13.01,2013-01-26 09:45:00,
2013-01-26 02:50:00,23.7,16.4,25.54,North,0,0.0,0.0,73,0.00,,---,0.00,VWS V13.01,2013-01-26 09:50:00,
2013-01-26 02:55:00,23.5,16.2,25.54,North,0,0.0,0.0,73,0.00,,---,0.00,VWS V13.01,2013-01-26 09:55:00,
2013-01-26 03:00:00,23.5,16.5,25.54,North,0,0.0,0.0,74,0.00,,---,0.00,VWS V13.01,2013-01-26 10:00:00,
2013-01-26 03:05:00,23.4,16.6,25.54,North,0,0.0,0.0,75,0.00,,---,0.00,VWS V13.01,2013-01-26 10:05:00,
2013-01-26 03:10:00,23.7,17.3,25.51,North,0,0.0,0.0,76,0.00,,---,0.00,VWS V13.01,2013-01-26 10:10:00,
2013-01-26 03:15:00,23.7,17.3,25.51,North,0,0.0,0.0,76,0.00,,---,0.00,VWS V13.01,2013-01-26 10:15:00,
2013-01-26 03:20:00,23.9,17.5,25.51,North,0,0.0,0.0,76,0.00,,---,0.00,VWS V13.01,2013-01-26 10:20:00,
2013-01-26 03:25:00,23.9,17.5,25.51,North,0,0.0,0.0,76,0.00,,---,0.00,VWS V13.01,2013-01-26 10:25:00,
2013-01-26 03:30:00,24.1,17.6,25.51,North,0,0.0,0.0,76,0.00,,---,0.00,VWS V13.01,2013-01-26 10:30:00,
2013-01-26 03:35:00,24.4,18.0,25.51,North,0,0.0,0.0,76,0.00,,---,0.00,VWS V13.01,2013-01-26 10:35:00,
2013-01-26 03:40:00,24.4,18.3,25.51,North,0,0.0,0.0,77,0.00,,---,0.00,VWS V13.01,2013-01-26 10:40:00,
2013-01-26 03:45:00,25.3,19.1,25.51,North,0,0.0,0.0,77,0.00,,---,0.00,VWS V13.01,2013-01-26 10:45:00,
2013-01-26 03:50:00,26.1,19.9,25.51,North,0,0.0,0.0,77,0.00,,---,0.00,VWS V13.01,2013-01-26 10:50:00,
2013-01-26 03:55:00,25.7,18.9,25.51,North,0,0.0,0.0,75,0.00,,---,0.00,VWS V13.01,2013-01-26 10:55:00,
2013-01-26 04:00:00,25.3,18.2,25.51,North,0,0.0,0.0,74,0.00,,---,0.00,VWS V13.01,2013-01-26 11:00:00,
2013-01-26 04:05:00,25.3,18.5,25.51,North,0,0.0,0.0,75,0.00,,---,0.00,VWS V13.01,2013-01-26 11:05:00,
2013-01-26 04:10:00,25.9,19.4,25.51,North,0,0.0,0.0,76,0.00,,---,0.00,VWS V13.01,2013-01-26 11:10:00,
2013-01-26 04:15:00,26.6,20.1,25.51,North,0,0.0,0.0,76,0.00,,---,0.00,VWS V13.01,2013-01-26 11:15:00,
2013-01-26 04:20:00,27.1,20.3,25.51,North,0,0.0,0.0,75,0.00,,---,0.00,VWS V13.01,2013-01-26 11:20:00,
2013-01-26 04:25:00,27.0,20.1,25.51,North,0,0.0,0.0,75,0.00,,---,0.00,VWS V13.01,2013-01-26 11:25:00,
2013-01-26 04:30:00,27.0,19.5,25.51,North,0,0.0,0.0,73,0.00,,---,0.00,VWS V13.01,2013-01-26 11:30:00,
2013-01-26 04:35:00,27.3,19.8,25.51,North,0,0.0,0.0,73,0.00,,---,0.00,VWS V13.01,2013-01-26 11:35:00,
2013-01-26 04:40:00,27.9,20.3,25.51,North,0,0.0,0.0,73,0.00,,---,0.00,VWS V13.01,2013-01-26 11:40:00,
2013-01-26 04:45:00,27.5,19.7,25.51,North,0,0.0,0.0,72,0.00,,---,0.00,VWS V13.01,2013-01-26 11:45:00,
2013-01-26 04:50:00,26.8,18.6,25.51,North,0,0.0,0.0,71,0.00,,---,0.00,VWS V13.01,2013-01-26 11:50:00,
2013-01-26 04:55:00,26.2,18.1,25.51,North,0,0.0,0.0,71,0.00,,---,0.00,VWS V13.01,2013-01-26 11:55:00,
2013-01-26 05:00:00,25.7,17.9,25.51,North,0,0.0,0.0,72,0.00,,---,0.00,VWS V13.01,2013-01-26 12:00:00,
2013-01-26 05:05:00,25.7,18.6,25.51,North,0,0.0,0.0,74,0.00,,---,0.00,VWS V13.01,2013-01-26 12:05:00,
2013-01-26 05:10:00,25.2,18.0,25.51,North,0,0.0,0.0,74,0.00,,---,0.00,VWS V13.01,2013-01-26 12:10:00,
2013-01-26 05:15:00,24.8,18.0,25.51,North,0,0.0,0.0,75,0.00,,---,0.00,VWS V13.01,2013-01-26 12:15:00,
2013-01-26 05:20:00,25.3,19.1,25.51,North,0,0.0,0.0,77,0.00,,---,0.00,VWS V13.01,2013-01-26 12:20:00,
2013-01-26 05:25:00,25.5,19.6,25.51,North,0,0.0,0.0,78,0.00,,---,0.00,VWS V13.01,2013-01-26 12:25:00,
2013-01-26 05:30:00,25.7,19.8,25.51,North,0,0.0,0.0,78,0.00,,---,0.00,VWS V13.01,2013-01-26 12:30:00,
2013-01-26 05:35:00,25.3,19.5,25.51,North,0,0.0,0.0,78,0.00,,---,0.00,VWS V13.01,2013-01-26 12:35:00,
2013-01-26 05:40:00,25.5,19.6,25.48,North,0,0.0,0.0,78,0.00,,---,0.00,VWS V13.01,2013-01-26 12:40:00,
2013-01-26 05:45:00,25.5,19.6,25.48,North,0,0.0,0.0,78,0.00,,---,0.00,VWS V13.01,2013-01-26 12:45:00,
2013-01-26 05:50:00,25.5,19.3,25.48,North,0,0.0,0.0,77,0.00,,---,0.00,VWS V13.01,2013-01-26 12:50:00,
2013-01-26 05:55:00,25.3,19.1,25.48,North,0,0.0,0.0,77,0.00,,---,0.00,VWS V13.01,2013-01-26 12:55:00,
2013-01-26 06:00:00,25.5,19.6,25.48,North,0,0.0,0.0,78,0.00,,---,0.00,VWS V13.01,2013-01-26 13:00:00,
2013-01-26 06:05:00,25.3,19.1,25.48,North,0,0.0,0.0,77,0.00,,---,0.00,VWS V13.01,2013-01-26 13:05:00,
2013-01-26 06:10:00,25.3,19.1,25.48,North,0,0.0,0.0,77,0.00,,---,0.00,VWS V13.01,2013-01-26 13:10:00,
2013-01-26 06:15:00,25.3,19.1,25.48,North,0,0.0,0.0,77,0.00,,---,0.00,VWS V13.01,2013-01-26 13:15:00,
2013-01-26 06:20:00,24.6,18.5,25.48,North,0,0.0,0.0,77,0.00,,---,0.00,VWS V13.01,2013-01-26 13:20:00,
2013-01-26 06:25:00,25.2,19.3,25.51,North,0,0.0,0.0,78,0.00,,---,0.00,VWS V13.01,2013-01-26 13:25:00,
2013-01-26 06:30:00,27.3,22.0,25.51,North,0,0.0,0.0,80,0.00,,---,0.00,VWS V13.01,2013-01-26 13:30:00,
2013-01-26 06:35:00,28.0,21.1,25.51,North,0,0.0,0.0,75,0.00,,---,0.00,VWS V13.01,2013-01-26 13:35:00,
2013-01-26 06:40:00,28.2,20.0,25.51,North,0,0.0,0.0,71,0.00,,---,0.00,VWS V13.01,2013-01-26 13:40:00,
2013-01-26 06:45:00,28.6,19.4,25.51,North,0,0.0,0.0,68,0.00,,---,0.00,VWS V13.01,2013-01-26 13:45:00,
2013-01-26 06:50:00,28.6,19.0,25.51,North,0,0.0,0.0,67,0.00,,---,0.00,VWS V13.01,2013-01-26 13:50:00,
2013-01-26 06:55:00,28.6,18.7,25.51,North,0,0.0,0.0,66,0.00,,---,0.00,VWS V13.01,2013-01-26 13:55:00,
2013-01-26 07:00:00,28.6,18.3,25.51,North,0,0.0,0.0,65,0.00,,---,0.00,VWS V13.01,2013-01-26 14:00:00,
2013-01-26 07:05:00,28.6,18.7,25.51,North,0,0.0,0.0,66,0.00,,---,0.00,VWS V13.01,2013-01-26 14:05:00,
2013-01-26 07:10:00,28.6,18.3,25.51,North,0,0.0,0.0,65,0.00,,---,0.00,VWS V13.01,2013-01-26 14:10:00,
2013-01-26 07:15:00,28.8,18.5,25.51,North,0,0.0,0.0,65,0.00,,---,0.00,VWS V13.01,2013-01-26 14:15:00,
2013-01-26 07:20:00,28.9,18.7,25.51,North,0,0.0,0.0,65,0.00,,---,0.00,VWS V13.01,2013-01-26 14:20:00,
2013-01-26 07:25:00,28.9,18.3,25.51,North,0,0.0,0.0,64,0.00,,---,0.00,VWS V13.01,2013-01-26 14:25:00,
2013-01-26 07:30:00,28.9,18.3,25.51,North,0,0.0,0.0,64,0.00,,---,0.00,VWS V13.01,2013-01-26 14:30:00,
2013-01-26 07:35:00,29.1,18.5,25.51,North,0,0.0,0.0,64,0.00,,---,0.00,VWS V13.01,2013-01-26 14:35:00,
2013-01-26 07:40:00,30.0,18.6,25.51,North,0,0.0,0.0,62,0.00,,---,0.00,VWS V13.01,2013-01-26 14:40:00,
2013-01-26 07:45:00,29.8,18.0,25.51,North,0,0.0,0.0,61,0.00,,---,0.00,VWS V13.01,2013-01-26 14:45:00,
2013-01-26 07:50:00,29.5,17.7,25.51,North,0,0.0,0.0,61,0.00,,---,0.00,VWS V13.01,2013-01-26 14:50:00,
2013-01-26 07:55:00,29.1,17.7,25.48,North,0,0.0,0.0,62,0.00,,---,0.00,VWS V13.01,2013-01-26 14:55:00,
2013-01-26 08:00:00,29.1,18.1,25.48,North,0,0.0,0.0,63,0.00,,---,0.00,VWS V13.01,2013-01-26 15:00:00,
2013-01-26 08:05:00,30.2,19.5,25.48,North,0,0.0,0.0,64,0.00,,---,0.00,VWS V13.01,2013-01-26 15:05:00,
2013-01-26 08:10:00,30.9,19.1,25.48,North,0,0.0,0.0,61,0.00,,---,0.00,VWS V13.01,2013-01-26 15:10:00,
2013-01-26 08:15:00,31.3,18.6,25.48,North,0,0.0,0.0,59,0.00,,---,0.00,VWS V13.01,2013-01-26 15:15:00,
2013-01-26 08:20:00,32.7,20.0,25.48,North,0,0.0,0.0,59,0.00,,---,0.00,VWS V13.01,2013-01-26 15:20:00,
2013-01-26 08:25:00,34.9,19.5,25.48,North,0,0.0,0.0,53,0.00,,---,0.00,VWS V13.01,2013-01-26 15:25:00,
2013-01-26 08:30:00,36.1,18.8,25.48,North,0,0.0,0.0,49,0.00,,---,0.00,VWS V13.01,2013-01-26 15:30:00,
2013-01-26 08:35:00,37.4,17.5,25.48,North,0,0.0,0.0,44,0.00,,---,0.00,VWS V13.01,2013-01-26 15:35:00,
2013-01-26 08:40:00,38.5,17.9,25.48,North,0,0.0,0.0,43,0.00,,---,0.00,VWS V13.01,2013-01-26 15:40:00,
2013-01-26 08:45:00,38.8,17.7,25.48,North,0,0.0,0.0,42,0.00,,---,0.00,VWS V13.01,2013-01-26 15:45:00,
2013-01-26 08:50:00,37.9,16.9,25.48,North,0,0.0,0.0,42,0.00,,---,0.00,VWS V13.01,2013-01-26 15:50:00,
2013-01-26 08:55:00,36.7,16.3,25.48,North,0,0.0,0.0,43,0.00,,---,0.00,VWS V13.01,2013-01-26 15:55:00,
2013-01-26 09:00:00,37.6,18.2,25.48,North,0,0.0,0.0,45,0.00,,---,0.00,VWS V13.01,2013-01-26 16:00:00,
2013-01-26 09:05:00,39.4,18.2,25.48,North,0,0.0,0.0,42,0.00,,---,0.00,VWS V13.01,2013-01-26 16:05:00,
2013-01-26 09:10:00,40.5,18.6,25.48,North,0,0.0,0.0,41,0.00,,---,0.00,VWS V13.01,2013-01-26 16:10:00,
2013-01-26 09:15:00,41.4,18.9,25.48,North,0,0.0,0.0,40,0.00,,---,0.00,VWS V13.01,2013-01-26 16:15:00,
2013-01-26 09:20:00,41.9,19.4,25.48,North,0,0.0,0.0,40,0.00,,---,0.00,VWS V13.01,2013-01-26 16:20:00,
2013-01-26 09:26:00,42.1,18.9,25.48,North,0,0.0,0.0,39,0.00,,---,0.00,VWS V13.01,2013-01-26 16:26:00,
2013-01-26 09:31:00,42.4,19.2,25.48,North,0,0.0,0.0,39,0.00,,---,0.00,VWS V13.01,2013-01-26 16:31:00,
2013-01-26 09:36:00,43.7,20.4,25.48,North,0,0.0,0.0,39,0.00,,---,0.00,VWS V13.01,2013-01-26 16:36:00,
2013-01-26 09:41:00,43.5,20.2,25.51,North,0,0.0,0.0,39,0.00,,---,0.00,VWS V13.01,2013-01-26 16:41:00,
2013-01-26 09:46:00,43.9,20.5,25.51,North,0,0.0,0.0,39,0.00,,---,0.00,VWS V13.01,2013-01-26 16:46:00,
2013-01-26 09:51:00,43.7,19.8,25.51,North,0,0.0,0.0,38,0.00,,---,0.00,VWS V13.01,2013-01-26 16:51:00,
2013-01-26 09:56:00,43.7,19.8,25.51,North,0,0.0,0.0,38,0.00,,---,0.00,VWS V13.01,2013-01-26 16:56:00,
2013-01-26 10:01:00,45.0,20.9,25.51,North,0,0.0,0.0,38,0.00,,---,0.00,VWS V13.01,2013-01-26 17:01:00,
2013-01-26 10:06:00,45.3,21.2,25.51,North,0,0.0,0.0,38,0.00,,---,0.00,VWS V13.01,2013-01-26 17:06:00,
2013-01-26 10:11:00,45.1,21.1,25.51,North,0,0.0,0.0,38,0.00,,---,0.00,VWS V13.01,2013-01-26 17:11:00,
2013-01-26 10:16:00,45.9,21.1,25.51,North,0,0.0,0.0,37,0.00,,---,0.00,VWS V13.01,2013-01-26 17:16:00,
2013-01-26 10:21:00,46.6,21.1,25.51,North,0,0.0,0.0,36,0.00,,---,0.00,VWS V13.01,2013-01-26 17:21:00,
2013-01-26 10:26:00,47.1,21.6,25.51,North,0,0.0,0.0,36,0.00,,---,0.00,VWS V13.01,2013-01-26 17:26:00,
2013-01-26 10:31:00,47.1,20.9,25.51,North,0,0.0,0.0,35,0.00,,---,0.00,VWS V13.01,2013-01-26 17:31:00,
2013-01-26 10:36:00,47.5,21.2,25.51,North,0,0.0,0.0,35,0.00,,---,0.00,VWS V13.01,2013-01-26 17:36:00,
2013-01-26 10:41:00,48.0,21.0,25.51,North,0,0.0,0.0,34,0.00,,---,0.00,VWS V13.01,2013-01-26 17:41:00,
2013-01-26 10:46:00,48.2,20.5,25.51,North,0,0.0,0.0,33,0.00,,---,0.00,VWS V13.01,2013-01-26 17:46:00,
2013-01-26 10:51:00,48.4,20.6,25.51,North,0,0.0,0.0,33,0.00,,---,0.00,VWS V13.01,2013-01-26 17:51:00,
2013-01-26 10:56:00,48.6,20.8,25.51,North,0,0.0,0.0,33,0.00,,---,0.00,VWS V13.01,2013-01-26 17:56:00,
2013-01-26 11:01:00,48.9,21.1,25.51,North,0,0.0,0.0,33,0.00,,---,0.00,VWS V13.01,2013-01-26 18:01:00,
2013-01-26 11:06:00,48.9,20.4,25.51,North,0,0.0,0.0,32,0.00,,---,0.00,VWS V13.01,2013-01-26 18:06:00,
2013-01-26 11:11:00,48.9,20.4,25.51,North,0,0.0,0.0,32,0.00,,---,0.00,VWS V13.01,2013-01-26 18:11:00,
2013-01-26 11:16:00,48.7,20.2,25.51,North,0,0.0,0.0,32,0.00,,---,0.00,VWS V13.01,2013-01-26 18:16:00,
2013-01-26 11:21:00,48.6,20.8,25.51,North,0,0.0,0.0,33,0.00,,---,0.00,VWS V13.01,2013-01-26 18:21:00,
2013-01-26 11:26:00,48.7,20.2,25.51,North,0,0.0,0.0,32,0.00,,---,0.00,VWS V13.01,2013-01-26 18:26:00,
2013-01-26 11:31:00,48.9,21.1,25.51,North,0,0.0,0.0,33,0.00,,---,0.00,VWS V13.01,2013-01-26 18:31:00,
2013-01-26 11:36:00,49.3,21.4,25.51,North,0,0.0,0.0,33,0.00,,---,0.00,VWS V13.01,2013-01-26 18:36:00,
2013-01-26 11:41:00,49.3,20.7,25.48,North,0,0.0,0.0,32,0.00,,---,0.00,VWS V13.01,2013-01-26 18:41:00,
2013-01-26 11:46:00,49.5,20.9,25.48,North,0,0.0,0.0,32,0.00,,---,0.00,VWS V13.01,2013-01-26 18:46:00,
2013-01-26 11:51:00,49.6,21.0,25.48,North,0,0.0,0.0,32,0.00,,---,0.00,VWS V13.01,2013-01-26 18:51:00,
2013-01-26 11:56:00,49.8,21.2,25.48,North,0,0.0,0.0,32,0.00,,---,0.00,VWS V13.01,2013-01-26 18:56:00,
2013-01-26 12:01:00,49.6,21.0,25.48,North,0,0.0,0.0,32,0.00,,---,0.00,VWS V13.01,2013-01-26 19:01:00,
2013-01-26 12:06:00,49.6,21.0,25.48,North,0,0.0,0.0,32,0.00,,---,0.00,VWS V13.01,2013-01-26 19:06:00,
2013-01-26 12:11:00,49.8,21.2,25.48,North,0,0.0,0.0,32,0.00,,---,0.00,VWS V13.01,2013-01-26 19:11:00,
2013-01-26 12:16:00,50.0,21.3,25.48,North,0,0.0,0.0,32,0.00,,---,0.00,VWS V13.01,2013-01-26 19:16:00,
2013-01-26 12:21:00,50.0,21.3,25.48,North,0,0.0,0.0,32,0.00,,---,0.00,VWS V13.01,2013-01-26 19:21:00,
2013-01-26 12:26:00,49.8,21.2,25.48,North,0,0.0,0.0,32,0.00,,---,0.00,VWS V13.01,2013-01-26 19:26:00,
2013-01-26 12:31:00,49.6,21.0,25.48,North,0,0.0,0.0,32,0.00,,---,0.00,VWS V13.01,2013-01-26 19:31:00,
2013-01-26 12:36:00,49.6,21.0,25.48,North,0,0.0,0.0,32,0.00,,---,0.00,VWS V13.01,2013-01-26 19:36:00,
2013-01-26 12:41:00,49.8,21.2,25.48,North,0,0.0,0.0,32,0.00,,---,0.00,VWS V13.01,2013-01-26 19:41:00,
2013-01-26 12:46:00,50.2,21.5,25.48,North,0,0.0,0.0,32,0.00,,---,0.00,VWS V13.01,2013-01-26 19:46:00,
2013-01-26 12:51:00,50.5,21.8,25.48,North,0,0.0,0.0,32,0.00,,---,0.00,VWS V13.01,2013-01-26 19:51:00,
2013-01-26 12:56:00,50.7,22.0,25.48,North,0,0.0,0.0,32,0.00,,---,0.00,VWS V13.01,2013-01-26 19:56:00,
2013-01-26 13:01:00,50.7,21.2,25.48,North,0,0.0,0.0,31,0.00,,---,0.00,VWS V13.01,2013-01-26 20:01:00,
2013-01-26 13:06:00,50.9,22.1,25.45,North,0,0.0,0.0,32,0.00,,---,0.00,VWS V13.01,2013-01-26 20:06:00,
2013-01-26 13:11:00,50.7,21.2,25.45,North,0,0.0,0.0,31,0.00,,---,0.00,VWS V13.01,2013-01-26 20:11:00,
2013-01-26 13:16:00,50.5,21.0,25.45,North,0,0.0,0.0,31,0.00,,---,0.00,VWS V13.01,2013-01-26 20:16:00,
2013-01-26 13:21:00,50.5,21.0,25.48,North,0,0.0,0.0,31,0.00,,---,0.00,VWS V13.01,2013-01-26 20:21:00,
2013-01-26 13:26:00,50.5,21.8,25.48,North,0,0.0,0.0,32,0.00,,---,0.00,VWS V13.01,2013-01-26 20:26:00,
2013-01-26 13:31:00,50.4,20.9,25.48,North,0,0.0,0.0,31,0.00,,---,0.00,VWS V13.01,2013-01-26 20:31:00,
2013-01-26 13:36:00,50.2,21.5,25.45,North,0,0.0,0.0,32,0.00,,---,0.00,VWS V13.01,2013-01-26 20:36:00,
2013-01-26 13:41:00,49.8,21.2,25.45,North,0,0.0,0.0,32,0.00,,---,0.00,VWS V13.01,2013-01-26 20:41:00,
2013-01-26 13:46:00,49.6,21.0,25.45,North,0,0.0,0.0,32,0.00,,---,0.00,VWS V13.01,2013-01-26 20:46:00,
2013-01-26 13:51:00,49.5,20.9,25.48,North,0,0.0,0.0,32,0.00,,---,0.00,VWS V13.01,2013-01-26 20:51:00,
2013-01-26 13:56:00,49.3,20.7,25.48,North,0,0.0,0.0,32,0.00,,---,0.00,VWS V13.01,2013-01-26 20:56:00,
2013-01-26 14:01:00,48.9,20.4,25.48,North,0,0.0,0.0,32,0.00,,---,0.00,VWS V13.01,2013-01-26 21:01:00,
2013-01-26 14:06:00,48.9,21.1,25.45,North,0,0.0,0.0,33,0.00,,---,0.00,VWS V13.01,2013-01-26 21:06:00,
2013-01-26 14:11:00,48.7,20.9,25.45,North,0,0.0,0.0,33,0.00,,---,0.00,VWS V13.01,2013-01-26 21:11:00,
2013-01-26 14:16:00,48.6,20.8,25.45,North,0,0.0,0.0,33,0.00,,---,0.00,VWS V13.01,2013-01-26 21:16:00,
2013-01-26 14:21:00,48.7,20.9,25.48,North,0,0.0,0.0,33,0.00,,---,0.00,VWS V13.01,2013-01-26 21:21:00,
2013-01-26 14:26:00,48.7,20.9,25.48,North,0,0.0,0.0,33,0.00,,---,0.00,VWS V13.01,2013-01-26 21:26:00,
2013-01-26 14:31:00,48.6,20.8,25.48,North,0,0.0,0.0,33,0.00,,---,0.00,VWS V13.01,2013-01-26 21:31:00,
2013-01-26 14:36:00,48.6,20.8,25.48,North,0,0.0,0.0,33,0.00,,---,0.00,VWS V13.01,2013-01-26 21:36:00,
2013-01-26 14:41:00,48.2,20.5,25.48,North,0,0.0,0.0,33,0.00,,---,0.00,VWS V13.01,2013-01-26 21:41:00,
2013-01-26 14:46:00,48.4,20.6,25.48,North,0,0.0,0.0,33,0.00,,---,0.00,VWS V13.01,2013-01-26 21:46:00,
2013-01-26 14:51:00,48.2,20.5,25.45,North,0,0.0,0.0,33,0.00,,---,0.00,VWS V13.01,2013-01-26 21:51:00,
2013-01-26 14:56:00,47.8,20.9,25.45,North,0,0.0,0.0,34,0.00,,---,0.00,VWS V13.01,2013-01-26 21:56:00,
2013-01-26 15:01:00,47.7,20.7,25.45,North,0,0.0,0.0,34,0.00,,---,0.00,VWS V13.01,2013-01-26 22:01:00,
2013-01-26 15:06:00,47.5,20.5,25.45,North,0,0.0,0.0,34,0.00,,---,0.00,VWS V13.01,2013-01-26 22:06:00,
2013-01-26 15:11:00,47.3,20.4,25.45,North,0,0.0,0.0,34,0.00,,---,0.00,VWS V13.01,2013-01-26 22:11:00,
2013-01-26 15:16:00,47.1,20.2,25.45,North,0,0.0,0.0,34,0.00,,---,0.00,VWS V13.01,2013-01-26 22:16:00,
2013-01-26 15:21:00,47.1,20.2,25.45,North,0,0.0,0.0,34,0.00,,---,0.00,VWS V13.01,2013-01-26 22:21:00,
2013-01-26 15:26:00,46.8,19.9,25.45,North,0,0.0,0.0,34,0.00,,---,0.00,VWS V13.01,2013-01-26 22:26:00,
2013-01-26 15:31:00,46.6,19.7,25.45,North,0,0.0,0.0,34,0.00,,---,0.00,VWS V13.01,2013-01-26 22:31:00,
2013-01-26 15:36:00,46.4,20.2,25.45,North,0,0.0,0.0,35,0.00,,---,0.00,VWS V13.01,2013-01-26 22:36:00,
2013-01-26 15:41:00,46.0,19.9,25.45,North,0,0.0,0.0,35,0.00,,---,0.00,VWS V13.01,2013-01-26 22:41:00,
2013-01-26 15:46:00,45.9,19.8,25.45,North,0,0.0,0.0,35,0.00,,---,0.00,VWS V13.01,2013-01-26 22:46:00,
2013-01-26 15:51:00,45.3,19.3,25.48,North,0,0.0,0.0,35,0.00,,---,0.00,VWS V13.01,2013-01-26 22:51:00,
2013-01-26 15:56:00,45.1,19.8,25.48,North,0,0.0,0.0,36,0.00,,---,0.00,VWS V13.01,2013-01-26 22:56:00,
2013-01-26 16:01:00,45.0,19.6,25.48,North,0,0.0,0.0,36,0.00,,---,0.00,VWS V13.01,2013-01-26 23:01:00,
2013-01-26 16:06:00,44.4,19.1,25.48,North,0,0.0,0.0,36,0.00,,---,0.00,VWS V13.01,2013-01-26 23:06:00,
2013-01-26 16:11:00,44.1,19.5,25.45,North,0,0.0,0.0,37,0.00,,---,0.00,VWS V13.01,2013-01-26 23:11:00,
2013-01-26 16:16:00,43.5,19.0,25.45,North,0,0.0,0.0,37,0.00,,---,0.00,VWS V13.01,2013-01-26 23:16:00,
2013-01-26 16:21:00,43.0,19.1,25.45,North,0,0.0,0.0,38,0.00,,---,0.00,VWS V13.01,2013-01-26 23:21:00,
2013-01-26 16:26:00,42.4,18.6,25.45,North,0,0.0,0.0,38,0.00,,---,0.00,VWS V13.01,2013-01-26 23:26:00,
2013-01-26 16:31:00,41.7,18.0,25.45,North,0,0.0,0.0,38,0.00,,---,0.00,VWS V13.01,2013-01-26 23:31:00,
2013-01-26 16:36:00,41.0,17.4,25.45,North,0,0.0,0.0,38,0.00,,---,0.00,VWS V13.01,2013-01-26 23:36:00,
2013-01-26 16:41:00,40.5,17.5,25.45,North,0,0.0,0.0,39,0.00,,---,0.00,VWS V13.01,2013-01-26 23:41:00,
2013-01-26 16:46:00,39.6,17.2,25.45,North,0,0.0,0.0,40,0.00,,---,0.00,VWS V13.01,2013-01-26 23:46:00,
2013-01-26 16:51:00,38.8,17.7,25.45,North,0,0.0,0.0,42,0.00,,---,0.00,VWS V13.01,2013-01-26 23:51:00,
2013-01-26 16:56:00,38.1,17.6,25.45,North,0,0.0,0.0,43,0.00,,---,0.00,VWS V13.01,2013-01-26 23:56:00,
2013-01-26 17:01:00,37.9,18.5,25.45,North,0,0.0,0.0,45,0.00,,---,0.00,VWS V13.01,2013-01-27 00:01:00,
2013-01-26 17:06:00,37.4,18.5,25.45,North,0,0.0,0.0,46,0.00,,---,0.00,VWS V13.01,2013-01-27 00:06:00,
2013-01-26 17:11:00,36.7,18.4,25.45,North,0,0.0,0.0,47,0.00,,---,0.00,VWS V13.01,2013-01-27 00:11:00,
2013-01-26 17:16:00,36.1,18.8,25.45,North,0,0.0,0.0,49,0.00,,---,0.00,VWS V13.01,2013-01-27 00:16:00,
2013-01-26 17:21:00,35.6,18.8,25.45,North,0,0.0,0.0,50,0.00,,---,0.00,VWS V13.01,2013-01-27 00:21:00,
2013-01-26 17:26:00,35.1,19.2,25.45,North,0,0.0,0.0,52,0.00,,---,0.00,VWS V13.01,2013-01-27 00:26:00,
2013-01-26 17:31:00,34.5,19.2,25.45,North,0,0.0,0.0,53,0.00,,---,0.00,VWS V13.01,2013-01-27 00:31:00,
2013-01-26 17:36:00,34.2,19.3,25.45,North,0,0.0,0.0,54,0.00,,---,0.00,VWS V13.01,2013-01-27 00:36:00,
2013-01-26 17:41:00,33.6,18.8,25.45,North,0,0.0,0.0,54,0.00,,---,0.00,VWS V13.01,2013-01-27 00:41:00,
2013-01-26 17:46:00,33.1,19.5,25.45,North,0,0.0,0.0,57,0.00,,---,0.00,VWS V13.01,2013-01-27 00:46:00,
2013-01-26 17:51:00,32.7,19.6,25.45,North,0,0.0,0.0,58,0.00,,---,0.00,VWS V13.01,2013-01-27 00:51:00,
2013-01-26 17:56:00,32.5,19.4,25.45,North,0,0.0,0.0,58,0.00,,---,0.00,VWS V13.01,2013-01-27 00:56:00,
2013-01-26 18:01:00,31.8,19.1,25.45,North,0,0.0,0.0,59,0.00,,---,0.00,VWS V13.01,2013-01-27 01:01:00,
2013-01-26 18:06:00,31.6,19.8,25.45,North,0,0.0,0.0,61,0.00,,---,0.00,VWS V13.01,2013-01-27 01:06:00,
2013-01-26 18:11:00,31.1,19.6,25.45,North,0,0.0,0.0,62,0.00,,---,0.00,VWS V13.01,2013-01-27 01:11:00,
2013-01-26 18:16:00,31.1,20.0,25.45,North,0,0.0,0.0,63,0.00,,---,0.00,VWS V13.01,2013-01-27 01:16:00,
2013-01-26 18:21:00,30.7,19.6,25.45,North,0,0.0,0.0,63,0.00,,---,0.00,VWS V13.01,2013-01-27 01:21:00,
2013-01-26 18:26:00,30.4,20.0,25.45,North,0,0.0,0.0,65,0.00,,---,0.00,VWS V13.01,2013-01-27 01:26:00,
2013-01-26 18:31:00,30.2,19.9,25.45,North,0,0.0,0.0,65,0.00,,---,0.00,VWS V13.01,2013-01-27 01:31:00,
2013-01-26 18:36:00,30.2,20.2,25.45,North,0,0.0,0.0,66,0.00,,---,0.00,VWS V13.01,2013-01-27 01:36:00,
2013-01-26 18:41:00,30.2,20.2,25.45,North,0,0.0,0.0,66,0.00,,---,0.00,VWS V13.01,2013-01-27 01:41:00,
2013-01-26 18:46:00,29.8,19.9,25.45,North,0,0.0,0.0,66,0.00,,---,0.00,VWS V13.01,2013-01-27 01:46:00,
2013-01-26 18:51:00,30.0,20.4,25.45,North,0,0.0,0.0,67,0.00,,---,0.00,VWS V13.01,2013-01-27 01:51:00,
2013-01-26 18:56:00,30.0,20.4,25.45,North,0,0.0,0.0,67,0.00,,---,0.00,VWS V13.01,2013-01-27 01:56:00,
2013-01-26 19:01:00,30.2,20.6,25.45,North,0,0.0,0.0,67,0.00,,---,0.00,VWS V13.01,2013-01-27 02:01:00,
2013-01-26 19:06:00,30.6,20.6,25.45,North,0,0.0,0.0,66,0.00,,---,0.00,VWS V13.01,2013-01-27 02:06:00,
2013-01-26 19:11:00,30.6,20.2,25.45,North,0,0.0,0.0,65,0.00,,---,0.00,VWS V13.01,2013-01-27 02:11:00,
2013-01-26 19:16:00,30.6,20.2,25.45,North,0,0.0,0.0,65,0.00,,---,0.00,VWS V13.01,2013-01-27 02:16:00,
2013-01-26 19:21:00,30.4,20.0,25.45,North,0,0.0,0.0,65,0.00,,---,0.00,VWS V13.01,2013-01-27 02:21:00,
2013-01-26 19:26:00,30.7,20.4,25.45,North,0,0.0,0.0,65,0.00,,---,0.00,VWS V13.01,2013-01-27 02:26:00,
2013-01-26 19:31:00,31.1,20.4,25.45,North,0,0.0,0.0,64,0.00,,---,0.00,VWS V13.01,2013-01-27 02:31:00,
2013-01-26 19:36:00,31.1,20.4,25.45,North,0,0.0,0.0,64,0.00,,---,0.00,VWS V13.01,2013-01-27 02:36:00,
2013-01-26 19:41:00,31.1,20.0,25.45,North,0,0.0,0.0,63,0.00,,---,0.00,VWS V13.01,2013-01-27 02:41:00,
2013-01-26 19:46:00,31.1,20.0,25.45,North,0,0.0,0.0,63,0.00,,---,0.00,VWS V13.01,2013-01-27 02:46:00,
2013-01-26 19:51:00,31.1,20.0,25.45,North,0,0.0,0.0,63,0.00,,---,0.00,VWS V13.01,2013-01-27 02:51:00,
2013-01-26 19:56:00,31.3,20.2,25.45,North,0,0.0,0.0,63,0.00,,---,0.00,VWS V13.01,2013-01-27 02:56:00,
2013-01-26 20:01:00,31.3,19.8,25.45,North,0,0.0,0.0,62,0.00,,---,0.00,VWS V13.01,2013-01-27 03:01:00,
2013-01-26 20:06:00,31.3,19.8,25.45,North,0,0.0,0.0,62,0.00,,---,0.00,VWS V13.01,2013-01-27 03:06:00,
2013-01-26 20:11:00,31.3,19.4,25.45,North,0,0.0,0.0,61,0.00,,---,0.00,VWS V13.01,2013-01-27 03:11:00,
2013-01-26 20:16:00,31.3,19.4,25.45,North,0,0.0,0.0,61,0.00,,---,0.00,VWS V13.01,2013-01-27 03:16:00,
2013-01-26 20:21:00,31.5,19.6,25.43,North,0,0.0,0.0,61,0.00,,---,0.00,VWS V13.01,2013-01-27 03:21:00,
2013-01-26 20:26:00,31.3,19.4,25.43,North,0,0.0,0.0,61,0.00,,---,0.00,VWS V13.01,2013-01-27 03:26:00,
2013-01-26 20:31:00,31.3,19.4,25.43,North,0,0.0,0.0,61,0.00,,---,0.00,VWS V13.01,2013-01-27 03:31:00,
2013-01-26 20:36:00,31.3,19.4,25.43,North,0,0.0,0.0,61,0.00,,---,0.00,VWS V13.01,2013-01-27 03:36:00,
2013-01-26 20:41:00,31.3,19.4,25.43,North,0,0.0,0.0,61,0.00,,---,0.00,VWS V13.01,2013-01-27 03:41:00,
2013-01-26 20:46:00,31.3,19.4,25.43,North,0,0.0,0.0,61,0.00,,---,0.00,VWS V13.01,2013-01-27 03:46:00,
2013-01-26 20:51:00,31.1,19.2,25.43,North,0,0.0,0.0,61,0.00,,---,0.00,VWS V13.01,2013-01-27 03:51:00,
2013-01-26 20:56:00,31.1,19.2,25.43,North,0,0.0,0.0,61,0.00,,---,0.00,VWS V13.01,2013-01-27 03:56:00,
2013-01-26 21:01:00,30.9,19.1,25.43,North,0,0.0,0.0,61,0.00,,---,0.00,VWS V13.01,2013-01-27 04:01:00,
2013-01-26 21:06:00,30.7,18.9,25.43,North,0,0.0,0.0,61,0.00,,---,0.00,VWS V13.01,2013-01-27 04:06:00,
2013-01-26 21:11:00,30.7,19.3,25.43,North,0,0.0,0.0,62,0.00,,---,0.00,VWS V13.01,2013-01-27 04:11:00,
2013-01-26 21:16:00,30.7,19.3,25.43,North,0,0.0,0.0,62,0.00,,---,0.00,VWS V13.01,2013-01-27 04:16:00,
2013-01-26 21:21:00,30.6,19.1,25.43,North,0,0.0,0.0,62,0.00,,---,0.00,VWS V13.01,2013-01-27 04:21:00,
2013-01-26 21:26:00,30.6,19.5,25.43,North,0,0.0,0.0,63,0.00,,---,0.00,VWS V13.01,2013-01-27 04:26:00,
2013-01-26 21:31:00,30.7,19.6,25.43,North,0,0.0,0.0,63,0.00,,---,0.00,VWS V13.01,2013-01-27 04:31:00,
2013-01-26 21:36:00,30.7,19.6,25.43,North,0,0.0,0.0,63,0.00,,---,0.00,VWS V13.01,2013-01-27 04:36:00,
2013-01-26 21:41:00,30.6,19.1,25.43,North,0,0.0,0.0,62,0.00,,---,0.00,VWS V13.01,2013-01-27 04:41:00,
2013-01-26 21:46:00,30.4,19.3,25.43,North,0,0.0,0.0,63,0.00,,---,0.00,VWS V13.01,2013-01-27 04:46:00,
2013-01-26 21:51:00,30.4,19.3,25.43,North,0,0.0,0.0,63,0.00,,---,0.00,VWS V13.01,2013-01-27 04:51:00,
2013-01-26 21:56:00,30.6,19.5,25.43,North,0,0.0,0.0,63,0.00,,---,0.00,VWS V13.01,2013-01-27 04:56:00,
2013-01-26 22:00:00,30.6,19.5,25.43,North,0,0.0,0.0,63,0.00,,---,0.00,VWS V13.01,2013-01-27 05:00:00,
2013-01-26 22:01:00,30.6,19.5,25.43,North,0,0.0,0.0,63,0.00,,---,0.00,VWS V13.01,2013-01-27 05:01:00,
2013-01-26 22:06:00,30.6,19.5,25.43,North,0,0.0,0.0,63,0.00,,---,0.00,VWS V13.01,2013-01-27 05:06:00,
2013-01-26 22:12:00,30.4,19.3,25.43,North,0,0.0,0.0,63,0.00,,---,0.00,VWS V13.01,2013-01-27 05:12:00,
2013-01-26 22:17:00,30.4,19.3,25.43,North,0,0.0,0.0,63,0.00,,---,0.00,VWS V13.01,2013-01-27 05:17:00,
2013-01-26 22:22:00,30.2,19.5,25.43,North,0,0.0,0.0,64,0.00,,---,0.00,VWS V13.01,2013-01-27 05:22:00,
2013-01-26 22:27:00,30.0,19.3,25.43,North,0,0.0,0.0,64,0.00,,---,0.00,VWS V13.01,2013-01-27 05:27:00,
2013-01-26 22:32:00,29.8,19.2,25.43,North,0,0.0,0.0,64,0.00,,---,0.00,VWS V13.01,2013-01-27 05:32:00,
2013-01-26 22:37:00,29.7,19.4,25.43,North,0,0.0,0.0,65,0.00,,---,0.00,VWS V13.01,2013-01-27 05:37:00,
2013-01-26 22:42:00,29.5,19.2,25.43,North,0,0.0,0.0,65,0.00,,---,0.00,VWS V13.01,2013-01-27 05:42:00,
2013-01-26 22:47:00,29.5,19.5,25.43,North,0,0.0,0.0,66,0.00,,---,0.00,VWS V13.01,2013-01-27 05:47:00,
2013-01-26 22:52:00,29.5,19.5,25.43,North,0,0.0,0.0,66,0.00,,---,0.00,VWS V13.01,2013-01-27 05:52:00,
2013-01-26 22:57:00,29.3,19.4,25.43,North,0,0.0,0.0,66,0.00,,---,0.00,VWS V13.01,2013-01-27 05:57:00,
2013-01-26 23:02:00,28.8,18.9,25.43,North,0,0.0,0.0,66,0.00,,---,0.00,VWS V13.01,2013-01-27 06:02:00,
2013-01-26 23:07:00,28.6,19.0,25.43,North,0,0.0,0.0,67,0.00,,---,0.00,VWS V13.01,2013-01-27 06:07:00,
2013-01-26 23:12:00,28.6,19.4,25.43,North,0,0.0,0.0,68,0.00,,---,0.00,VWS V13.01,2013-01-27 06:12:00,
2013-01-26 23:17:00,28.6,19.7,25.43,North,0,0.0,0.0,69,0.00,,---,0.00,VWS V13.01,2013-01-27 06:17:00,
2013-01-26 23:21:00,28.6,19.7,25.43,North,0,0.0,0.0,69,0.00,,---,0.00,VWS V13.01,2013-01-27 06:21:00,
2013-01-26 23:26:00,28.2,19.4,25.43,North,0,0.0,0.0,69,0.00,,---,0.00,VWS V13.01,2013-01-27 06:26:00,
2013-01-26 23:31:00,28.2,19.4,25.43,North,0,0.0,0.0,69,0.00,,---,0.00,VWS V13.01,2013-01-27 06:31:00,
2013-01-26 23:36:00,27.9,19.0,25.40,North,0,0.0,0.0,69,0.00,,---,0.00,VWS V13.01,2013-01-27 06:36:00,
2013-01-26 23:41:00,27.9,19.4,25.40,North,0,0.0,0.0,70,0.00,,---,0.00,VWS V13.01,2013-01-27 06:41:00,
2013-01-26 23:46:00,28.0,19.9,25.40,North,0,0.0,0.0,71,0.00,,---,0.00,VWS V13.01,2013-01-27 06:46:00,
2013-01-26 23:51:00,28.0,19.9,25.40,North,0,0.0,0.0,71,0.00,,---,0.00,VWS V13.01,2013-01-27 06:51:00,
2013-01-26 23:56:00,28.0,19.9,25.40,North,0,0.0,0.0,71,0.00,,---,0.00,VWS V13.01,2013-01-27 06:56:00,